createdAt,value
2019-05-23T00:01:18.489Z,101480.06
2019-05-23T00:04:17.743Z,101480.63
2019-05-23T00:07:12.355Z,101471.02
2019-05-23T00:10:03.467Z,101474.36
2019-05-23T00:12:54.027Z,101475.39
2019-05-23T00:15:31.593Z,101472.16
2019-05-23T00:18:04.639Z,101482.14
2019-05-23T00:20:36.399Z,101473.28
2019-05-23T00:23:08.761Z,101475.31
2019-05-23T00:25:40.468Z,101477.88
2019-05-23T00:28:11.386Z,101478.30
2019-05-23T00:30:47.584Z,101473.59
2019-05-23T00:33:21.211Z,101459.35
2019-05-23T00:35:53.041Z,101470.64
2019-05-23T00:38:23.668Z,101472.44
2019-05-23T00:40:55.258Z,101476.29
2019-05-23T00:43:27.560Z,101478.23
2019-05-23T00:46:00.092Z,101476.94
2019-05-23T00:48:31.566Z,101475.41
2019-05-23T00:51:05.378Z,101478.37
2019-05-23T00:53:36.768Z,101475.41
2019-05-23T00:56:09.529Z,101479.56
2019-05-23T00:58:40.964Z,101475.23
2019-05-23T01:01:13.526Z,101466.45
2019-05-23T01:03:43.813Z,101472.05
2019-05-23T01:06:15.493Z,101467.95
2019-05-23T01:08:46.383Z,101470.69
2019-05-23T01:11:17.385Z,101467.20
2019-05-23T01:13:47.816Z,101466.52
2019-05-23T01:16:21.438Z,101465.70
2019-05-23T01:18:52.010Z,101468.14
2019-05-23T01:21:46.235Z,101470.08
2019-05-23T01:24:25.495Z,101464.97
2019-05-23T01:26:56.467Z,101469.86
2019-05-23T01:29:37.402Z,101467.73
2019-05-23T01:32:09.516Z,101471.09
2019-05-23T01:34:39.956Z,101465.05
2019-05-23T01:37:10.585Z,101465.76
2019-05-23T01:39:41.168Z,101466.33
2019-05-23T01:42:11.951Z,101460.91
2019-05-23T01:44:42.678Z,101464.72
2019-05-23T01:47:15.393Z,101463.70
2019-05-23T01:49:45.902Z,101461.81
2019-05-23T01:52:20.341Z,101463.48
2019-05-23T01:54:50.759Z,101465.64
2019-05-23T01:57:23.077Z,101466.33
2019-05-23T02:00:08.122Z,101465.34
2019-05-23T02:02:28.197Z,101464.16
2019-05-23T02:04:59.229Z,101467.45
2019-05-23T02:07:31.625Z,101461.83
2019-05-23T02:10:01.878Z,101462.41
2019-05-23T02:12:34.387Z,101462.23
2019-05-23T02:15:05.398Z,101467.55
2019-05-23T02:17:36.357Z,101464.34
2019-05-23T02:20:07.890Z,101465.26
2019-05-23T02:22:40.536Z,101466.43
2019-05-23T02:25:12.914Z,101465.55
2019-05-23T02:27:44.399Z,101458.96
2019-05-23T02:30:33.313Z,101458.75
2019-05-23T02:32:51.148Z,101451.43
2019-05-23T02:35:21.416Z,101453.81
2019-05-23T02:38:11.629Z,101453.28
2019-05-23T02:41:13.112Z,101449.14
2019-05-23T02:43:49.086Z,101454.29
2019-05-23T02:46:34.549Z,101453.20
2019-05-23T02:49:09.076Z,101455.79
2019-05-23T02:51:40.425Z,101448.70
2019-05-23T02:54:15.281Z,101447.20
2019-05-23T02:56:46.030Z,101443.72
2019-05-23T02:59:48.168Z,101454.91
2019-05-23T03:02:58.767Z,101451.11
2019-05-23T03:05:31.273Z,101449.98
2019-05-23T03:08:07.994Z,101454.36
2019-05-23T03:10:58.596Z,101447.98
2019-05-23T03:13:32.497Z,101449.61
2019-05-23T03:16:03.926Z,101449.02
2019-05-23T03:18:41.580Z,101440.97
2019-05-23T03:21:13.531Z,101436.26
2019-05-23T03:23:44.750Z,101446.64
2019-05-23T03:27:17.085Z,101443.22
2019-05-23T03:29:48.081Z,101437.98
2019-05-23T03:32:39.443Z,101441.41
2019-05-23T03:35:15.009Z,101436.19
2019-05-23T03:37:45.976Z,101435.83
2019-05-23T03:40:16.808Z,101442.97
2019-05-23T03:42:48.222Z,101437.02
2019-05-23T03:45:23.966Z,101447.33
2019-05-23T03:47:54.454Z,101446.58
2019-05-23T03:50:29.283Z,101443.78
2019-05-23T03:52:59.743Z,101445.94
2019-05-23T03:55:32.814Z,101449.14
2019-05-23T03:58:05.751Z,101445.17
2019-05-23T04:00:43.830Z,101438.77
2019-05-23T04:03:14.190Z,101445.02
2019-05-23T04:05:45.606Z,101438.19
2019-05-23T04:08:17.061Z,101443.33
2019-05-23T04:10:51.609Z,101442.52
2019-05-23T04:13:20.312Z,101444.60
2019-05-23T04:15:50.484Z,101446.97
2019-05-23T04:18:20.998Z,101447.95
2019-05-23T04:20:51.636Z,101446.45
2019-05-23T04:23:22.279Z,101447.89
2019-05-23T04:25:52.502Z,101450.98
2019-05-23T04:28:24.153Z,101451.17
2019-05-23T04:30:54.580Z,101455.38
2019-05-23T04:33:28.592Z,101452.16
2019-05-23T04:35:58.923Z,101452.77
2019-05-23T04:38:30.653Z,101445.13
2019-05-23T04:41:01.102Z,101449.94
2019-05-23T04:43:32.584Z,101455.08
2019-05-23T04:46:03.205Z,101454.01
2019-05-23T04:48:33.448Z,101447.89
2019-05-23T04:51:06.910Z,101449.11
2019-05-23T04:53:41.246Z,101447.11
2019-05-23T04:56:14.327Z,101446.41
2019-05-23T04:58:45.808Z,101451.33
2019-05-23T05:01:17.637Z,101448.19
2019-05-23T05:03:49.424Z,101447.69
2019-05-23T05:06:20.296Z,101449.78
2019-05-23T05:08:54.572Z,101449.82
2019-05-23T05:11:24.714Z,101449.28
2019-05-23T05:13:59.024Z,101447.15
2019-05-23T05:16:29.567Z,101441.48
2019-05-23T05:18:59.952Z,101448.40
2019-05-23T05:21:30.128Z,101451.33
2019-05-23T05:24:00.974Z,101452.82
2019-05-23T05:26:31.424Z,101452.58
2019-05-23T05:29:01.602Z,101450.03
2019-05-23T05:31:33.842Z,101454.70
2019-05-23T05:34:05.806Z,101458.59
2019-05-23T05:36:41.374Z,101458.67
2019-05-23T05:39:12.997Z,101455.95
2019-05-23T05:41:43.193Z,101455.58
2019-05-23T05:44:14.460Z,101458.50
2019-05-23T05:46:45.734Z,101462.48
2019-05-23T05:49:15.906Z,101460.39
2019-05-23T05:51:48.078Z,101454.08
2019-05-23T05:54:20.402Z,101460.22
2019-05-23T05:56:51.040Z,101459.75
2019-05-23T05:59:23.522Z,101462.12
2019-05-23T06:01:54.574Z,101463.55
2019-05-23T06:04:27.231Z,101468.69
2019-05-23T06:07:29.052Z,101469.29
2019-05-23T06:10:03.561Z,101470.65
2019-05-23T06:12:33.969Z,101468.67
2019-05-23T06:15:05.097Z,101472.27
2019-05-23T06:17:36.458Z,101473.78
2019-05-23T06:20:09.227Z,101476.44
2019-05-23T06:22:40.635Z,101470.98
2019-05-23T06:25:11.967Z,101481.05
2019-05-23T06:27:43.040Z,101477.63
2019-05-23T06:30:15.622Z,101471.80
2019-05-23T06:32:48.775Z,101476.45
2019-05-23T06:35:21.345Z,101480.05
2019-05-23T06:37:51.958Z,101478.66
2019-05-23T06:40:23.223Z,101474.00
2019-05-23T06:42:53.601Z,101476.39
2019-05-23T06:45:24.935Z,101470.98
2019-05-23T06:47:55.927Z,101479.03
2019-05-23T06:50:26.817Z,101479.20
2019-05-23T06:52:58.589Z,101478.19
2019-05-23T06:55:28.767Z,101481.19
2019-05-23T06:57:59.026Z,101481.46
2019-05-23T07:00:29.987Z,101479.92
2019-05-23T07:03:01.801Z,101479.11
2019-05-23T07:05:35.475Z,101479.07
2019-05-23T07:08:06.087Z,101481.19
2019-05-23T07:10:39.365Z,101475.97
2019-05-23T07:13:09.746Z,101480.63
2019-05-23T07:15:40.055Z,101481.20
2019-05-23T07:18:10.270Z,101478.27
2019-05-23T07:20:40.504Z,101478.32
2019-05-23T07:23:13.034Z,101477.03
2019-05-23T07:25:43.335Z,101482.81
2019-05-23T07:28:13.498Z,101483.11
2019-05-23T07:30:43.762Z,101487.19
2019-05-23T07:33:14.795Z,101481.47
2019-05-23T07:35:45.324Z,101489.29
2019-05-23T07:38:15.565Z,101484.12
2019-05-23T07:40:46.754Z,101474.28
2019-05-23T07:43:17.331Z,101479.13
2019-05-23T07:45:57.693Z,101476.54
2019-05-23T07:48:28.880Z,101476.54
2019-05-23T07:51:06.928Z,101477.79
2019-05-23T07:53:46.501Z,101473.44
2019-05-23T07:56:18.456Z,101472.36
2019-05-23T07:58:49.095Z,101477.23
2019-05-23T08:01:22.311Z,101475.41
2019-05-23T08:03:53.054Z,101470.89
2019-05-23T08:06:24.873Z,101467.25
2019-05-23T08:08:55.326Z,101467.84
2019-05-23T08:11:26.005Z,101468.09
2019-05-23T08:13:56.970Z,101461.55
2019-05-23T08:16:30.098Z,101467.07
2019-05-23T08:19:00.625Z,101459.70
2019-05-23T08:21:32.159Z,101461.75
2019-05-23T08:24:02.438Z,101461.39
2019-05-23T08:26:33.982Z,101466.21
2019-05-23T08:29:24.712Z,101458.22
2019-05-23T08:31:36.851Z,101461.39
2019-05-23T08:34:07.364Z,101462.59
2019-05-23T08:36:39.364Z,101459.97
2019-05-23T08:39:10.630Z,101463.51
2019-05-23T08:41:41.190Z,101459.31
2019-05-23T08:44:11.953Z,101466.69
2019-05-23T08:46:43.706Z,101461.55
2019-05-23T08:49:14.342Z,101452.89
2019-05-23T08:51:45.822Z,101451.02
2019-05-23T08:54:17.608Z,101458.11
2019-05-23T08:56:48.490Z,101451.17
2019-05-23T08:59:18.663Z,101452.55
2019-05-23T09:01:48.949Z,101445.13
2019-05-23T09:04:19.500Z,101443.60
2019-05-23T09:06:50.933Z,101444.36
2019-05-23T09:09:29.523Z,101448.17
2019-05-23T09:11:53.241Z,101443.61
2019-05-23T09:14:23.803Z,101443.58
2019-05-23T09:16:54.808Z,101444.02
2019-05-23T09:19:24.960Z,101446.59
2019-05-23T09:21:57.989Z,101442.44
2019-05-23T09:24:27.611Z,101444.73
2019-05-23T09:26:58.800Z,101436.61
2019-05-23T09:29:29.264Z,101427.92
2019-05-23T09:31:59.610Z,101435.70
2019-05-23T09:34:30.688Z,101432.41
2019-05-23T09:37:03.515Z,101427.08
2019-05-23T09:39:36.807Z,101428.50
2019-05-23T09:42:07.010Z,101429.84
2019-05-23T09:44:37.383Z,101434.56
2019-05-23T09:47:08.191Z,101427.34
2019-05-23T09:49:39.556Z,101423.13
2019-05-23T09:52:12.699Z,101430.59
2019-05-23T09:54:44.344Z,101422.22
2019-05-23T09:57:15.557Z,101423.72
2019-05-23T09:59:45.716Z,101414.70
2019-05-23T10:02:15.928Z,101410.09
2019-05-23T10:04:48.116Z,101414.30
2019-05-23T10:07:19.286Z,101409.44
2019-05-23T10:09:51.012Z,101406.48
2019-05-23T10:12:22.575Z,101403.04
2019-05-23T10:14:53.020Z,101403.41
2019-05-23T10:17:23.692Z,101404.19
2019-05-23T10:19:53.979Z,101400.55
2019-05-23T10:22:24.240Z,101401.39
2019-05-23T10:24:54.418Z,101391.68
2019-05-23T10:27:26.671Z,101385.55
2019-05-23T10:29:56.884Z,101382.95
2019-05-23T10:32:27.067Z,101381.02
2019-05-23T10:34:57.234Z,101385.73
2019-05-23T10:37:28.062Z,101378.94
2019-05-23T10:39:58.469Z,101371.59
2019-05-23T10:42:30.163Z,101378.17
2019-05-23T10:45:00.438Z,101374.83
2019-05-23T10:47:31.436Z,101368.09
2019-05-23T10:50:07.617Z,101363.88
2019-05-23T10:52:34.687Z,101365.09
2019-05-23T10:55:06.582Z,101363.55
2019-05-23T10:57:37.954Z,101355.11
2019-05-23T11:00:10.879Z,101357.18
2019-05-23T11:02:43.215Z,101352.66
2019-05-23T11:05:14.439Z,101348.57
2019-05-23T11:07:45.334Z,101341.64
2019-05-23T11:10:17.168Z,101344.48
2019-05-23T11:12:48.333Z,101345.02
2019-05-23T11:15:19.500Z,101339.84
2019-05-23T11:17:53.538Z,101338.59
2019-05-23T11:20:22.753Z,101326.91
2019-05-23T11:22:52.999Z,101329.71
2019-05-23T11:25:24.542Z,101327.11
2019-05-23T11:27:55.783Z,101329.73
2019-05-23T11:30:32.030Z,101330.72
2019-05-23T11:33:02.567Z,101328.48
2019-05-23T11:35:32.895Z,101331.47
2019-05-23T11:38:03.604Z,101332.95
2019-05-23T11:40:34.053Z,101327.88
2019-05-23T11:43:05.833Z,101324.02
2019-05-23T11:45:46.047Z,101318.34
2019-05-23T11:48:16.188Z,101321.06
2019-05-23T11:50:46.925Z,101316.92
2019-05-23T11:53:18.083Z,101317.47
2019-05-23T11:55:53.997Z,101316.38
2019-05-23T11:58:21.841Z,101308.37
2019-05-23T12:01:21.206Z,101310.82
2019-05-23T12:03:56.639Z,101309.34
2019-05-23T12:06:29.832Z,101304.16
2019-05-23T12:09:00.065Z,101302.25
2019-05-23T12:11:35.525Z,101298.15
2019-05-23T12:14:03.882Z,101296.91
2019-05-23T12:16:34.114Z,101293.81
2019-05-23T12:19:06.177Z,101299.78
2019-05-23T12:21:36.825Z,101297.48
2019-05-23T12:24:06.996Z,101302.87
2019-05-23T12:26:37.165Z,101290.39
2019-05-23T12:29:07.358Z,101293.30
2019-05-23T12:31:38.251Z,101296.95
2019-05-23T12:34:10.288Z,101288.39
2019-05-23T12:36:41.013Z,101287.17
2019-05-23T12:39:11.663Z,101284.91
2019-05-23T12:41:43.652Z,101287.19
2019-05-23T12:44:17.561Z,101289.66
2019-05-23T12:46:47.270Z,101284.02
2019-05-23T12:49:40.422Z,101281.77
2019-05-23T12:52:11.956Z,101281.47
2019-05-23T12:54:43.218Z,101283.91
2019-05-23T12:57:14.152Z,101274.02
2019-05-23T12:59:44.636Z,101263.56
2019-05-23T13:02:22.804Z,101264.05
2019-05-23T13:04:54.162Z,101259.34
2019-05-23T13:07:35.583Z,101264.52
2019-05-23T13:09:57.173Z,101263.31
2019-05-23T13:12:27.853Z,101247.02
2019-05-23T13:14:59.056Z,101259.63
2019-05-23T13:17:30.659Z,101250.91
2019-05-23T13:20:01.277Z,101252.05
2019-05-23T13:22:32.588Z,101250.80
2019-05-23T13:25:02.760Z,101243.13
2019-05-23T13:27:34.577Z,101247.02
2019-05-23T13:30:08.096Z,101240.09
2019-05-23T13:32:38.403Z,101235.31
2019-05-23T13:35:09.078Z,101229.64
2019-05-23T13:37:53.248Z,101222.23
2019-05-23T13:40:12.169Z,101225.23
2019-05-23T13:42:42.596Z,101229.43
2019-05-23T13:45:12.826Z,101230.94
2019-05-23T13:47:43.910Z,101228.12
2019-05-23T13:50:16.923Z,101229.93
2019-05-23T13:52:48.157Z,101224.13
2019-05-23T13:55:18.716Z,101218.31
2019-05-23T13:57:49.849Z,101220.80
2019-05-23T14:00:22.711Z,101217.28
2019-05-23T14:02:53.124Z,101216.66
2019-05-23T14:05:25.036Z,101215.48
2019-05-23T14:08:10.775Z,101211.77
2019-05-23T14:10:28.520Z,101205.52
2019-05-23T14:12:58.653Z,101210.56
2019-05-23T14:15:35.144Z,101207.50
2019-05-23T14:18:05.363Z,101207.02
2019-05-23T14:20:36.931Z,101207.63
2019-05-23T14:23:27.508Z,101207.27
2019-05-23T14:25:58.393Z,101200.17
2019-05-23T14:28:30.413Z,101197.89
2019-05-23T14:31:06.489Z,101205.27
2019-05-23T14:33:44.805Z,101202.95
2019-05-23T14:36:23.131Z,101198.48
2019-05-23T14:38:55.140Z,101196.70
2019-05-23T14:41:43.766Z,101203.08
2019-05-23T14:43:59.585Z,101190.61
2019-05-23T14:46:33.302Z,101188.36
2019-05-23T14:49:11.504Z,101197.74
2019-05-23T14:51:49.338Z,101193.64
2019-05-23T14:54:26.015Z,101190.13
2019-05-23T14:56:56.608Z,101188.16
2019-05-23T14:59:28.480Z,101190.95
2019-05-23T15:01:58.700Z,101191.84
2019-05-23T15:04:29.744Z,101184.22
2019-05-23T15:07:00.385Z,101184.91
2019-05-23T15:09:30.502Z,101180.41
2019-05-23T15:12:00.856Z,101179.66
2019-05-23T15:14:31.519Z,101173.96
2019-05-23T15:17:01.671Z,101175.41
2019-05-23T15:19:40.463Z,101166.53
2019-05-23T15:22:03.789Z,101165.14
2019-05-23T15:24:34.406Z,101165.86
2019-05-23T15:27:05.312Z,101166.81
2019-05-23T15:29:35.481Z,101167.27
2019-05-23T15:32:06.061Z,101168.63
2019-05-23T15:34:36.216Z,101163.55
2019-05-23T15:37:06.393Z,101158.69
2019-05-23T15:39:37.311Z,101159.27
2019-05-23T15:42:08.403Z,101150.80
2019-05-23T15:44:38.670Z,101149.04
2019-05-23T15:47:09.040Z,101153.72
2019-05-23T15:49:40.867Z,101150.44
2019-05-23T15:52:46.196Z,101144.12
2019-05-23T15:55:40.259Z,101140.20
2019-05-23T15:58:15.196Z,101133.97
2019-05-23T16:01:11.969Z,101142.84
2019-05-23T16:03:47.863Z,101137.03
2019-05-23T16:06:21.166Z,101135.89
2019-05-23T16:08:51.531Z,101128.01
2019-05-23T16:11:21.756Z,101128.31
2019-05-23T16:13:52.431Z,101129.49
2019-05-23T16:16:23.200Z,101132.17
2019-05-23T16:18:53.858Z,101130.44
2019-05-23T16:21:24.506Z,101132.80
2019-05-23T16:23:54.644Z,101119.13
2019-05-23T16:26:25.884Z,101124.66
2019-05-23T16:28:56.538Z,101125.56
2019-05-23T16:31:26.670Z,101118.86
2019-05-23T16:33:56.926Z,101125.41
2019-05-23T16:36:27.084Z,101123.78
2019-05-23T16:38:57.339Z,101123.46
2019-05-23T16:41:27.615Z,101126.40
2019-05-23T16:43:58.442Z,101124.44
2019-05-23T16:46:28.691Z,101126.78
2019-05-23T16:48:59.060Z,101117.52
2019-05-23T16:51:29.437Z,101120.11
2019-05-23T16:54:01.927Z,101119.78
2019-05-23T16:56:41.862Z,101119.36
2019-05-23T16:59:26.557Z,101114.90
2019-05-23T17:02:14.692Z,101120.84
2019-05-23T17:05:08.617Z,101119.86
2019-05-23T17:07:45.447Z,101118.38
2019-05-23T17:10:34.178Z,101124.82
2019-05-23T17:13:09.166Z,101125.55
2019-05-23T17:15:54.137Z,101119.48
2019-05-23T17:18:49.849Z,101116.39
2019-05-23T17:21:26.913Z,101122.57
2019-05-23T17:24:10.062Z,101121.59
2019-05-23T17:26:54.353Z,101121.21
2019-05-23T17:29:35.437Z,101116.80
2019-05-23T17:32:09.041Z,101118.13
2019-05-23T17:34:39.192Z,101116.28
2019-05-23T17:37:11.826Z,101113.94
2019-05-23T17:39:43.889Z,101114.20
2019-05-23T17:42:14.603Z,101110.36
2019-05-23T17:44:44.814Z,101114.05
2019-05-23T17:47:15.086Z,101107.14
2019-05-23T17:49:46.345Z,101108.60
2019-05-23T17:52:18.423Z,101104.87
2019-05-23T17:54:48.591Z,101100.95
2019-05-23T17:57:19.061Z,101103.53
2019-05-23T17:59:49.452Z,101098.71
2019-05-23T18:02:21.778Z,101098.97
2019-05-23T18:04:52.504Z,101101.67
2019-05-23T18:07:24.903Z,101095.34
2019-05-23T18:09:55.404Z,101097.32
2019-05-23T18:12:26.116Z,101096.44
2019-05-23T18:14:57.915Z,101094.77
2019-05-23T18:17:28.714Z,101103.41
2019-05-23T18:19:58.886Z,101098.20
2019-05-23T18:22:30.748Z,101099.64
2019-05-23T18:25:01.754Z,101095.55
2019-05-23T18:27:33.368Z,101092.30
2019-05-23T18:30:05.977Z,101095.09
2019-05-23T18:32:36.953Z,101095.46
2019-05-23T18:35:09.336Z,101091.64
2019-05-23T18:37:40.064Z,101089.67
2019-05-23T18:40:11.070Z,101094.91
2019-05-23T18:42:42.441Z,101098.93
2019-05-23T18:45:13.709Z,101094.80
2019-05-23T18:47:43.888Z,101100.69
2019-05-23T18:50:15.710Z,101103.25
2019-05-23T18:52:47.753Z,101100.17
2019-05-23T18:55:18.582Z,101096.33
2019-05-23T18:57:49.334Z,101101.69
2019-05-23T19:00:23.134Z,101096.58
2019-05-23T19:02:56.596Z,101103.77
2019-05-23T19:05:27.685Z,101100.96
2019-05-23T19:07:59.459Z,101101.73
2019-05-23T19:10:29.880Z,101106.98
2019-05-23T19:13:00.808Z,101112.23
2019-05-23T19:15:31.301Z,101112.41
2019-05-23T19:18:01.538Z,101114.22
2019-05-23T19:20:31.869Z,101113.28
2019-05-23T19:23:03.178Z,101115.83
2019-05-23T19:25:35.500Z,101110.21
2019-05-23T19:28:07.659Z,101110.14
2019-05-23T19:30:38.121Z,101113.65
2019-05-23T19:33:09.296Z,101116.34
2019-05-23T19:35:41.662Z,101114.06
2019-05-23T19:38:12.554Z,101121.62
2019-05-23T19:40:45.002Z,101125.34
2019-05-23T19:43:15.769Z,101125.34
2019-05-23T19:45:47.837Z,101127.42
2019-05-23T19:48:19.090Z,101131.56
2019-05-23T19:50:50.608Z,101130.45
2019-05-23T19:53:20.874Z,101136.99
2019-05-23T19:55:52.130Z,101139.43
2019-05-23T19:58:24.045Z,101138.48
2019-05-23T20:00:55.628Z,101141.97
2019-05-23T20:03:27.578Z,101143.45
2019-05-23T20:05:58.052Z,101150.77
2019-05-23T20:08:28.648Z,101139.02
2019-05-23T20:10:59.507Z,101139.23
2019-05-23T20:13:29.760Z,101143.20
2019-05-23T20:16:00.431Z,101147.16
2019-05-23T20:18:31.571Z,101145.33
2019-05-23T20:21:02.421Z,101142.94
2019-05-23T20:23:32.590Z,101146.41
2019-05-23T20:26:07.860Z,101145.66
2019-05-23T20:28:39.766Z,101142.75
2019-05-23T20:31:10.420Z,101147.96
2019-05-23T20:33:40.857Z,101148.14
2019-05-23T20:36:13.289Z,101146.61
2019-05-23T20:38:44.289Z,101150.07
2019-05-23T20:41:15.478Z,101147.95
2019-05-23T20:43:45.625Z,101147.29
2019-05-23T20:46:19.191Z,101159.12
2019-05-23T20:48:49.728Z,101156.14
2019-05-23T20:51:20.383Z,101155.97
2019-05-23T20:53:50.858Z,101154.79
2019-05-23T20:56:27.264Z,101152.09
2019-05-23T20:58:57.434Z,101155.74
2019-05-23T21:01:34.812Z,101157.77
2019-05-23T21:04:07.000Z,101150.28
2019-05-23T21:06:38.787Z,101151.03
2019-05-23T21:09:10.183Z,101151.41
2019-05-23T21:11:41.740Z,101148.44
2019-05-23T21:14:13.346Z,101149.12
2019-05-23T21:16:45.507Z,101148.13
2019-05-23T21:19:17.029Z,101152.94
2019-05-23T21:21:49.166Z,101149.59
2019-05-23T21:24:20.546Z,101149.88
2019-05-23T21:26:51.092Z,101147.47
2019-05-23T21:29:22.224Z,101140.73
2019-05-23T21:31:54.549Z,101139.25
2019-05-23T21:34:25.432Z,101142.42
2019-05-23T21:36:56.216Z,101137.34
2019-05-23T21:39:28.231Z,101140.77
2019-05-23T21:41:58.426Z,101133.64
2019-05-23T21:44:28.572Z,101139.42
2019-05-23T21:47:01.027Z,101133.84
2019-05-23T21:49:32.056Z,101135.24
2019-05-23T21:52:02.323Z,101131.40
2019-05-23T21:54:32.489Z,101132.94
2019-05-23T21:57:02.685Z,101128.98
2019-05-23T21:59:34.959Z,101132.83
2019-05-23T22:02:13.818Z,101139.24
2019-05-23T22:04:52.557Z,101138.41
2019-05-23T22:07:22.857Z,101138.48
2019-05-23T22:09:53.175Z,101133.86
2019-05-23T22:12:24.044Z,101128.67
2019-05-23T22:14:56.642Z,101125.87
2019-05-23T22:17:27.349Z,101131.33
2019-05-23T22:19:58.924Z,101133.74
2019-05-23T22:22:29.651Z,101129.31
2019-05-23T22:24:59.906Z,101126.14
2019-05-23T22:27:30.134Z,101131.41
2019-05-23T22:30:00.318Z,101126.80
2019-05-23T22:32:32.749Z,101125.47
2019-05-23T22:35:06.538Z,101124.20
2019-05-23T22:37:36.812Z,101124.28
2019-05-23T22:40:09.703Z,101126.22
2019-05-23T22:42:41.090Z,101116.63
2019-05-23T22:45:15.111Z,101119.17
2019-05-23T22:47:46.026Z,101114.19
2019-05-23T22:50:16.206Z,101117.35
2019-05-23T22:52:46.393Z,101122.18
2019-05-23T22:55:17.823Z,101120.79
2019-05-23T22:57:48.464Z,101127.64
2019-05-23T23:00:26.029Z,101118.66
2019-05-23T23:02:56.581Z,101120.64
2019-05-23T23:05:28.512Z,101127.16
2019-05-23T23:08:01.701Z,101120.99
2019-05-23T23:10:33.369Z,101127.12
2019-05-23T23:13:03.522Z,101120.16
2019-05-23T23:15:35.425Z,101124.27
2019-05-23T23:18:06.897Z,101121.07
2019-05-23T23:20:37.100Z,101117.00
2019-05-23T23:23:08.089Z,101114.27
2019-05-23T23:25:39.585Z,101107.74
2019-05-23T23:28:14.478Z,101107.06
2019-05-23T23:30:46.400Z,101109.08
2019-05-23T23:33:16.633Z,101109.43
2019-05-23T23:35:49.316Z,101099.47
2019-05-23T23:38:19.953Z,101100.09
2019-05-23T23:40:50.794Z,101094.80
2019-05-23T23:43:20.968Z,101087.83
2019-05-23T23:46:08.906Z,101093.58
2019-05-23T23:48:57.391Z,101093.33
2019-05-23T23:51:45.306Z,101096.45
2019-05-23T23:54:33.730Z,101094.08
2019-05-23T23:57:23.095Z,101089.27
2019-05-23T23:59:53.166Z,101086.31
